Time;durP1;ratioP1;P1;durP2;ratioP2;P2;SDS_P1;SDS_P2;PMS_P1;PMS_P2;Temp;Humidity;BMP_temperature;BMP_pressure;BME280_temperature;BME280_humidity;BME280_pressure;Samples;Min_cycle;Max_cycle;Signal;HPM_P1;HPM_P2
2023/04/23 05:05:39;;;;;;;14.20;9.43;;;12.60;27.30;;;;;;5439409;23;20762;-87
2023/04/23 05:08:07;;;;;;;19.10;9.53;;;12.80;29.50;;;;;;5000671;28;20211;-87
2023/04/23 05:10:34;;;;;;;13.80;9.83;;;12.90;25.50;;;;;;4993887;28;20205;-87
2023/04/23 05:13:01;;;;;;;14.77;9.70;;;13.00;26.00;;;;;;4993571;28;20263;-87
2023/04/23 05:15:28;;;;;;;16.43;9.27;;;13.10;25.80;;;;;;4993541;28;20200;-87
2023/04/23 05:17:55;;;;;;;14.53;9.20;;;13.30;18.20;;;;;;4993589;28;20188;-88
2023/04/23 05:20:22;;;;;;;16.27;9.20;;;13.40;16.00;;;;;;4993886;28;20284;-90
2023/04/23 05:22:51;;;;;;;15.67;9.37;;;13.50;11.60;;;;;;4999001;28;20250;-88
2023/04/23 05:25:18;;;;;;;14.27;9.10;;;13.60;20.60;;;;;;4999153;28;20201;-88
2023/04/23 05:27:44;;;;;;;11.97;9.00;;;13.70;1.30;;;;;;5006035;28;20240;-87
2023/04/23 05:30:12;;;;;;;14.10;9.17;;;13.80;1.00;;;;;;5008275;28;20197;-88
2023/04/23 05:32:39;;;;;;;15.23;9.30;;;13.90;1.00;;;;;;5002986;28;20202;-87
2023/04/23 05:35:07;;;;;;;12.00;8.43;;;13.90;1.00;;;;;;5008522;28;20193;-87
2023/04/23 05:37:34;;;;;;;14.30;9.23;;;14.00;1.00;;;;;;5004094;28;20649;-87
2023/04/23 05:40:05;;;;;;;13.87;9.47;;;14.00;1.00;;;;;;5003073;28;20202;-88
2023/04/23 05:42:32;;;;;;;15.57;9.40;;;14.00;1.00;;;;;;5004132;28;20192;-88
2023/04/23 05:44:59;;;;;;;12.60;9.07;;;13.90;1.00;;;;;;4996794;28;20582;-89
2023/04/23 05:47:26;;;;;;;14.40;9.70;;;13.90;1.00;;;;;;4991163;28;20241;-88
2023/04/23 05:49:53;;;;;;;12.33;9.47;;;13.90;1.00;;;;;;5006608;28;20248;-88
2023/04/23 05:52:20;;;;;;;15.70;10.23;;;14.00;1.00;;;;;;4993259;28;20655;-89
2023/04/23 05:54:47;;;;;;;16.67;11.27;;;13.90;1.00;;;;;;4993289;28;20238;-89
2023/04/23 05:57:15;;;;;;;16.30;11.40;;;14.00;1.00;;;;;;4992719;28;20260;-87
2023/04/23 05:59:42;;;;;;;15.37;9.57;;;14.00;1.00;;;;;;4993594;28;20202;-89
2023/04/23 06:02:10;;;;;;;15.57;9.67;;;14.00;1.00;;;;;;4994017;28;20249;-89
2023/04/23 06:04:38;;;;;;;18.97;11.13;;;14.00;1.00;;;;;;4997035;28;20229;-89
2023/04/23 06:07:05;;;;;;;13.50;9.67;;;14.10;1.00;;;;;;5023400;28;20747;-89
2023/04/23 06:09:32;;;;;;;17.83;11.73;;;14.10;1.00;;;;;;5025136;28;20233;-88
2023/04/23 06:11:58;;;;;;;16.33;9.70;;;14.10;1.00;;;;;;5018756;28;20193;-90
2023/04/23 06:14:27;;;;;;;12.57;9.30;;;14.20;1.00;;;;;;5014426;28;20270;-89
2023/04/23 06:16:54;;;;;;;13.07;9.13;;;14.20;1.00;;;;;;5012706;28;20250;-89
2023/04/23 06:19:23;;;;;;;14.60;9.10;;;14.30;1.00;;;;;;5012827;28;20674;-89
2023/04/23 06:21:51;;;;;;;13.50;9.50;;;14.40;1.00;;;;;;5012269;28;20202;-87
2023/04/23 06:24:18;;;;;;;16.07;9.80;;;14.40;1.00;;;;;;5012736;28;21554;-88
2023/04/23 06:26:45;;;;;;;14.60;8.83;;;14.50;1.00;;;;;;5016128;28;20632;-88
2023/04/23 06:29:12;;;;;;;12.67;8.97;;;14.60;1.00;;;;;;5025543;28;20561;-90
2023/04/23 06:31:40;;;;;;;12.10;8.30;;;14.70;1.00;;;;;;5016471;28;20643;-90
2023/04/23 06:34:07;;;;;;;14.37;9.00;;;14.80;1.00;;;;;;5026536;28;20714;-89
2023/04/23 06:36:34;;;;;;;11.73;8.73;;;14.90;1.00;;;;;;5023492;28;20240;-90
2023/04/23 06:39:01;;;;;;;14.23;9.55;;;15.00;1.00;;;;;;5027074;28;20191;-90
2023/04/23 06:41:28;;;;;;;12.52;9.23;;;15.10;1.00;;;;;;5028767;28;20206;-90
2023/04/23 06:43:55;;;;;;;19.42;9.95;;;15.20;1.00;;;;;;5013223;28;20192;-89
2023/04/23 06:46:22;;;;;;;14.50;10.05;;;15.20;1.00;;;;;;5018320;28;20200;-89
2023/04/23 06:48:51;;;;;;;14.45;10.15;;;15.30;1.00;;;;;;5021244;28;20634;-89
2023/04/23 06:51:17;;;;;;;14.63;9.75;;;15.30;1.00;;;;;;5026207;28;20586;-89
2023/04/23 06:53:44;;;;;;;17.48;9.40;;;15.40;1.00;;;;;;5014520;28;20197;-90
2023/04/23 06:56:11;;;;;;;15.55;9.85;;;15.40;1.00;;;;;;5019258;28;20277;-88
2023/04/23 06:58:39;;;;;;;20.65;10.57;;;15.50;1.00;;;;;;5014062;28;20549;-88
2023/04/23 07:01:07;;;;;;;13.55;9.48;;;15.60;1.00;;;;;;5014921;28;20231;-88
2023/04/23 07:03:35;;;;;;;13.30;9.27;;;15.70;1.00;;;;;;5015860;28;20275;-88
2023/04/23 07:06:04;;;;;;;12.57;9.68;;;15.70;1.00;;;;;;5016165;28;20225;-87
2023/04/23 07:08:31;;;;;;;14.30;9.68;;;15.80;1.00;;;;;;5033379;28;20227;-87
2023/04/23 07:10:58;;;;;;;16.20;9.68;;;16.00;1.00;;;;;;5031153;28;20657;-87
2023/04/23 07:13:25;;;;;;;14.95;9.98;;;16.00;1.00;;;;;;5015817;28;20198;-87
2023/04/23 07:15:52;;;;;;;14.05;9.63;;;16.10;1.00;;;;;;5015217;28;20248;-89
2023/04/23 07:18:19;;;;;;;12.85;8.75;;;16.10;1.00;;;;;;5015496;28;20206;-89
2023/04/23 07:20:46;;;;;;;16.58;9.93;;;16.20;1.00;;;;;;5015197;28;20194;-88
2023/04/23 07:23:14;;;;;;;13.77;9.02;;;16.30;1.00;;;;;;5015462;28;20256;-88
2023/04/23 07:25:41;;;;;;;14.23;9.07;;;16.40;1.00;;;;;;5020073;28;20206;-88
2023/04/23 07:28:08;;;;;;;11.90;8.82;;;16.40;1.00;;;;;;5020561;28;20296;-87
2023/04/23 07:30:35;;;;;;;10.98;8.70;;;16.50;1.00;;;;;;5020615;28;20578;-88
2023/04/23 07:33:02;;;;;;;14.43;9.23;;;16.60;1.00;;;;;;5020831;28;20239;-87
2023/04/23 07:35:29;;;;;;;14.90;9.40;;;16.60;1.00;;;;;;5016809;28;20197;-88
2023/04/23 07:37:57;;;;;;;12.13;9.07;;;16.70;1.00;;;;;;5019320;28;20194;-88
2023/04/23 07:40:25;;;;;;;12.23;8.57;;;16.80;1.00;;;;;;5015150;28;20561;-89
2023/04/23 07:42:52;;;;;;;13.50;8.90;;;16.90;1.00;;;;;;5014797;28;20745;-88
2023/04/23 07:45:19;;;;;;;10.52;8.52;;;17.00;1.00;;;;;;5015108;28;20234;-89
2023/04/23 07:47:46;;;;;;;12.98;9.25;;;17.10;1.00;;;;;;5014974;28;20264;-89
2023/04/23 07:50:13;;;;;;;14.23;8.90;;;17.20;1.00;;;;;;5015457;28;20245;-88
2023/04/23 07:52:40;;;;;;;17.33;9.55;;;17.30;1.00;;;;;;5030979;28;20655;-89
2023/04/23 07:55:09;;;;;;;12.40;9.25;;;17.30;1.00;;;;;;5024101;28;20617;-89
2023/04/23 07:57:37;;;;;;;14.23;9.30;;;17.40;1.00;;;;;;5020641;28;20186;-88
2023/04/23 08:00:08;;;;;;;12.90;8.75;;;17.40;1.00;;;;;;5028430;28;20264;-87
2023/04/23 08:02:35;;;;;;;12.23;8.43;;;17.50;1.00;;;;;;5023058;28;20198;-88
2023/04/23 08:05:02;;;;;;;13.73;8.50;;;17.70;1.00;;;;;;5029221;28;20314;-88
2023/04/23 08:07:29;;;;;;;10.82;8.93;;;17.80;1.00;;;;;;5014601;28;20616;-88
2023/04/23 08:10:01;;;;;;;14.57;9.20;;;17.90;1.00;;;;;;5013720;28;20194;-88
2023/04/23 08:12:29;;;;;;;11.60;8.40;;;18.00;1.00;;;;;;5014427;28;20249;-88
2023/04/23 08:14:57;;;;;;;14.75;8.60;;;18.20;1.00;;;;;;5014381;28;20191;-88
2023/04/23 08:17:24;;;;;;;11.07;8.63;;;18.30;1.00;;;;;;5014284;28;20253;-88
2023/04/23 08:19:51;;;;;;;14.88;9.00;;;18.40;1.00;;;;;;5029934;28;20198;-89
2023/04/23 08:22:18;;;;;;;13.25;8.90;;;18.50;1.00;;;;;;5022597;28;20730;-88
2023/04/23 08:24:45;;;;;;;10.23;8.52;;;18.60;1.00;;;;;;5019986;28;20249;-89
2023/04/23 08:27:12;;;;;;;12.38;8.40;;;18.70;1.00;;;;;;5018736;28;20230;-88
2023/04/23 08:29:39;;;;;;;13.70;8.82;;;18.80;1.00;;;;;;5021899;28;20259;-89
2023/04/23 08:32:08;;;;;;;11.55;10.02;;;18.80;1.00;;;;;;5026423;28;20248;-89
2023/04/23 08:34:34;;;;;;;13.57;8.93;;;18.90;1.00;;;;;;5018027;28;20198;-88
2023/04/23 08:37:01;;;;;;;12.75;8.55;;;19.00;1.00;;;;;;5019365;28;20254;-89
2023/04/23 08:39:31;;;;;;;13.55;9.13;;;19.00;1.00;;;;;;5020167;28;20201;-89
2023/04/23 08:42:05;;;;;;;12.18;7.78;;;19.10;1.00;;;;;;5027655;28;20660;-88
2023/04/23 08:44:33;;;;;;;13.70;8.05;;;19.20;1.00;;;;;;5014027;28;20210;-88
2023/04/23 08:47:04;;;;;;;10.40;7.88;;;19.30;1.00;;;;;;5017662;28;20656;-89
2023/04/23 08:49:34;;;;;;;10.88;7.13;;;19.40;1.00;;;;;;5013960;28;20560;-89
2023/04/23 08:52:19;;;;;;;13.05;7.82;;;19.60;1.00;;;;;;5013523;28;20204;-88
2023/04/23 08:54:49;;;;;;;11.20;7.68;;;19.70;1.00;;;;;;5013267;28;20245;-89
2023/04/23 08:57:17;;;;;;;11.23;7.60;;;19.80;1.00;;;;;;5026302;28;20201;-88
2023/04/23 08:59:46;;;;;;;13.70;7.88;;;19.90;1.00;;;;;;5026687;28;20201;-89
2023/04/23 09:02:14;;;;;;;11.73;8.35;;;19.90;1.00;;;;;;5014521;28;20198;-88
2023/04/23 09:04:43;;;;;;;7.88;6.53;;;20.10;1.00;;;;;;5026871;28;20710;-89
2023/04/23 09:07:10;;;;;;;9.98;7.18;;;20.20;1.00;;;;;;5020346;28;20288;-89
2023/04/23 09:09:38;;;;;;;12.50;9.70;;;20.30;1.00;;;;;;5017777;28;20222;-88
2023/04/23 09:12:06;;;;;;;16.35;11.55;;;20.50;1.00;;;;;;5019028;28;20658;-89
2023/04/23 09:14:33;;;;;;;12.82;9.18;;;20.50;1.00;;;;;;5015514;28;20202;-89
2023/04/23 09:17:01;;;;;;;9.13;6.38;;;20.50;1.00;;;;;;5017221;28;20249;-88
2023/04/23 09:19:29;;;;;;;9.48;6.28;;;20.70;1.00;;;;;;5015095;28;20543;-88
2023/04/23 09:21:59;;;;;;;6.72;5.97;;;20.70;1.00;;;;;;5022421;28;20674;-88
2023/04/23 09:24:26;;;;;;;7.57;5.72;;;20.80;1.00;;;;;;5018752;28;20277;-89
2023/04/23 09:26:55;;;;;;;11.13;6.57;;;20.90;1.00;;;;;;5017869;28;20594;-89
2023/04/23 09:29:23;;;;;;;8.32;6.30;;;21.00;1.00;;;;;;5015282;28;20279;-89
2023/04/23 09:31:52;;;;;;;7.57;5.40;;;21.10;1.00;;;;;;5031598;28;20193;-88
2023/04/23 09:34:19;;;;;;;8.23;6.10;;;21.10;1.00;;;;;;5019363;28;20537;-88
2023/04/23 09:36:49;;;;;;;10.52;6.07;;;21.10;1.00;;;;;;5018745;28;20655;-89
2023/04/23 09:39:20;;;;;;;7.97;5.45;;;21.20;1.00;;;;;;5018808;28;20190;-88
2023/04/23 09:41:47;;;;;;;11.98;6.07;;;21.40;1.00;;;;;;5016974;28;20198;-89
2023/04/23 09:44:18;;;;;;;9.38;7.13;;;21.50;1.00;;;;;;5017124;28;20185;-89
2023/04/23 09:46:46;;;;;;;7.07;6.25;;;21.60;1.00;;;;;;5017672;28;20252;-89
2023/04/23 09:49:13;;;;;;;7.20;5.88;;;21.80;1.00;;;;;;5018464;28;20213;-89
2023/04/23 09:51:41;;;;;;;8.50;5.85;;;22.10;1.00;;;;;;5018582;28;20195;-89
2023/04/23 09:54:13;;;;;;;8.93;7.00;;;22.50;1.00;;;;;;5017536;28;20201;-89
2023/04/23 09:56:41;;;;;;;10.55;6.50;;;23.00;1.00;;;;;;5029686;28;20194;-89
2023/04/23 09:59:22;;;;;;;7.93;6.90;;;23.30;1.00;;;;;;5019481;28;20228;-89
2023/04/23 10:01:49;;;;;;;8.63;6.47;;;23.40;1.00;;;;;;5013294;28;20260;-89
2023/04/23 10:04:19;;;;;;;9.15;6.70;;;23.40;1.00;;;;;;5012461;28;20191;-89
2023/04/23 10:06:47;;;;;;;9.40;6.38;;;23.30;1.00;;;;;;5012608;28;20197;-89
2023/04/23 10:09:14;;;;;;;10.93;6.32;;;23.40;1.00;;;;;;5012714;28;20312;-89
2023/04/23 10:11:43;;;;;;;8.20;5.82;;;23.60;1.00;;;;;;5013158;28;20205;-89
2023/04/23 10:14:10;;;;;;;6.40;5.20;;;23.80;1.00;;;;;;5017211;28;20190;-90
2023/04/23 10:16:39;;;;;;;10.27;5.72;;;24.10;1.00;;;;;;5017877;28;20249;-89
2023/04/23 10:19:10;;;;;;;7.50;4.97;;;24.30;1.00;;;;;;5018432;28;20225;-88
2023/04/23 10:21:38;;;;;;;9.98;4.80;;;24.30;1.00;;;;;;5018077;28;20201;-89
2023/04/23 10:24:07;;;;;;;8.40;4.75;;;24.10;1.00;;;;;;5017382;28;20233;-88
2023/04/23 10:26:34;;;;;;;9.90;5.25;;;23.80;1.00;;;;;;5024958;28;20289;-89
2023/04/23 10:31:39;;;;;;;12.50;8.00;;;23.50;1.00;;;;;;5930044;22;20227;-88
2023/04/23 10:34:07;;;;;;;39.85;20.25;;;23.70;1.00;;;;;;4971427;28;20207;-90
2023/04/23 10:36:34;;;;;;;91.85;52.17;;;24.10;1.00;;;;;;4964564;28;20203;-89
2023/04/23 10:39:03;;;;;;;9.57;6.32;;;24.30;1.00;;;;;;4974515;28;20206;-89
2023/04/23 10:41:36;;;;;;;7.05;5.05;;;24.30;1.00;;;;;;4961151;28;20553;-90
2023/04/23 10:44:04;;;;;;;17.15;13.10;;;24.20;1.00;;;;;;4970614;28;20254;-89
2023/04/23 10:46:32;;;;;;;8.10;6.00;;;24.10;1.00;;;;;;4968939;28;20199;-89
2023/04/23 10:49:13;;;;;;;16.05;10.77;;;23.90;1.00;;;;;;4970663;28;20656;-90
2023/04/23 10:51:41;;;;;;;7.88;5.72;;;23.80;1.00;;;;;;4969612;28;20215;-89
2023/04/23 10:54:09;;;;;;;11.63;7.47;;;23.60;1.00;;;;;;4972458;28;20295;-90
2023/04/23 10:56:38;;;;;;;8.10;5.80;;;23.40;1.00;;;;;;4973704;28;20195;-89
2023/04/23 10:59:06;;;;;;;9.45;5.82;;;23.20;1.00;;;;;;4969181;28;20200;-89
2023/04/23 11:01:33;;;;;;;10.25;6.30;;;22.90;1.00;;;;;;4973404;28;20191;-89
2023/04/23 11:04:22;;;;;;;9.20;5.97;;;22.70;1.00;;;;;;4969593;28;20200;-89
2023/04/23 11:06:55;;;;;;;6.95;5.80;;;22.40;1.00;;;;;;4970218;28;20201;-88
2023/04/23 11:09:29;;;;;;;8.73;5.72;;;22.10;1.00;;;;;;4969848;28;20638;-90
2023/04/23 11:11:56;;;;;;;8.30;6.70;;;21.70;1.00;;;;;;4971135;28;20207;-88
2023/04/23 11:14:33;;;;;;;9.10;6.13;;;21.40;1.00;;;;;;4974618;28;20204;-90
2023/04/23 11:17:00;;;;;;;8.93;5.47;;;21.00;1.00;;;;;;4972858;28;20666;-90
2023/04/23 11:19:30;;;;;;;8.07;5.60;;;20.80;1.00;;;;;;4976939;28;20592;-89
2023/04/23 11:22:02;;;;;;;6.80;5.45;;;20.60;1.00;;;;;;4970298;28;20200;-90
2023/04/23 11:24:30;;;;;;;10.05;8.25;;;20.50;1.00;;;;;;4974100;28;20210;-89
2023/04/23 11:26:58;;;;;;;8.68;6.55;;;20.50;1.00;;;;;;4976902;28;20199;-89
2023/04/23 11:29:26;;;;;;;7.03;5.65;;;20.50;1.00;;;;;;4976889;28;20249;-91
2023/04/23 11:31:54;;;;;;;8.88;6.55;;;20.60;1.00;;;;;;4975632;28;20223;-91
2023/04/23 11:34:22;;;;;;;7.13;6.05;;;20.70;1.00;;;;;;4976426;28;20207;-90
2023/04/23 11:36:53;;;;;;;7.07;5.00;;;20.80;1.00;;;;;;4974989;28;20202;-90
2023/04/23 11:39:20;;;;;;;7.38;3.28;;;20.80;1.00;;;;;;4975974;28;20192;-91
2023/04/23 11:41:48;;;;;;;5.43;3.10;;;20.80;1.00;;;;;;4975520;28;20196;-90
2023/04/23 11:44:15;;;;;;;4.53;2.65;;;20.90;1.00;;;;;;4972428;28;20602;-91
2023/04/23 11:46:42;;;;;;;6.88;3.10;;;20.90;1.00;;;;;;4972165;28;20192;-91
2023/04/23 11:49:10;;;;;;;3.28;2.90;;;20.80;1.00;;;;;;4967907;28;20224;-90
2023/04/23 11:51:41;;;;;;;4.57;3.10;;;20.70;1.00;;;;;;4972291;28;20199;-92
2023/04/23 17:49:55;;;;;;;2.08;1.73;;;15.20;1.00;;;;;;5055669;23;20275;-86
2023/04/23 17:52:22;;;;;;;2.33;1.80;;;14.90;99.90;;;;;;5016839;28;20203;-86
2023/04/23 17:54:49;;;;;;;2.28;1.77;;;14.80;99.90;;;;;;5027700;28;20199;-87
2023/04/23 17:57:16;;;;;;;3.17;1.90;;;14.60;1.00;;;;;;5016729;28;20205;-88
2023/04/23 17:59:43;;;;;;;2.55;2.10;;;14.50;1.00;;;;;;5024704;28;20193;-87
2023/04/23 18:02:10;;;;;;;2.88;2.00;;;14.40;1.00;;;;;;5019770;28;20262;-86
2023/04/23 18:04:37;;;;;;;2.63;1.90;;;14.20;72.70;;;;;;5012905;28;20196;-86
2023/04/23 18:07:06;;;;;;;3.08;2.10;;;14.10;99.90;;;;;;5014805;28;20249;-87
2023/04/23 18:09:32;;;;;;;2.30;2.10;;;14.00;99.90;;;;;;5027205;28;20322;-87
2023/04/23 18:11:59;;;;;;;2.30;2.10;;;13.90;99.90;;;;;;5016688;28;20248;-86
2023/04/23 18:14:26;;;;;;;2.80;2.13;;;13.80;1.00;;;;;;5018510;28;20194;-86
2023/04/23 18:16:53;;;;;;;3.30;2.40;;;13.70;1.00;;;;;;5013138;28;20198;-87
2023/04/23 18:19:20;;;;;;;2.73;2.37;;;13.70;1.00;;;;;;5020952;28;20190;-87
2023/04/23 18:21:48;;;;;;;4.40;2.40;;;13.60;1.00;;;;;;5016274;28;20622;-86
2023/04/23 18:24:17;;;;;;;3.47;2.23;;;13.50;1.00;;;;;;5012916;28;20198;-86
2023/04/23 18:26:44;;;;;;;3.73;2.73;;;13.40;1.00;;;;;;5023896;28;20214;-85
2023/04/23 18:29:11;;;;;;;2.87;2.57;;;13.30;1.00;;;;;;5026045;28;20265;-87
2023/04/23 18:31:38;;;;;;;4.00;3.30;;;13.20;1.00;;;;;;5026923;28;20251;-86
2023/04/23 18:34:09;;;;;;;5.10;3.33;;;13.10;5.70;;;;;;5015848;28;20208;-86
2023/04/23 18:36:38;;;;;;;4.33;3.60;;;13.00;99.90;;;;;;5029581;28;20660;-87
2023/04/23 18:39:06;;;;;;;4.17;2.77;;;12.90;99.90;;;;;;5022570;28;20203;-87
2023/04/23 18:41:34;;;;;;;3.00;2.70;;;12.90;88.20;;;;;;5027249;28;20204;-87
2023/04/23 18:44:01;;;;;;;4.40;2.70;;;12.70;99.90;;;;;;5022825;28;20227;-87
2023/04/23 18:46:29;;;;;;;3.50;2.60;;;12.60;76.00;;;;;;5010834;28;20203;-87
2023/04/23 18:49:00;;;;;;;7.00;4.43;;;12.40;1.00;;;;;;5011210;28;20622;-87
2023/04/23 18:51:32;;;;;;;11.30;7.57;;;12.30;99.90;;;;;;5029094;28;20290;-88
2023/04/23 18:54:00;;;;;;;17.37;9.87;;;12.20;99.90;;;;;;5025124;28;20738;-88
2023/04/23 18:56:27;;;;;;;11.23;6.53;;;12.10;1.00;;;;;;5030285;28;20652;-87
2023/04/23 18:58:55;;;;;;;7.67;5.47;;;12.10;1.00;;;;;;5026051;28;20269;-86
2023/04/23 19:01:23;;;;;;;10.97;7.03;;;12.10;1.00;;;;;;5026652;28;20738;-89
2023/04/23 19:03:50;;;;;;;9.30;5.10;;;12.00;1.00;;;;;;5022023;28;20584;-87
2023/04/23 19:06:18;;;;;;;9.00;5.60;;;12.00;1.00;;;;;;5034807;28;20199;-87
2023/04/23 19:08:48;;;;;;;10.67;7.00;;;11.90;1.00;;;;;;5027945;28;20622;-88
2023/04/23 19:11:15;;;;;;;19.33;10.17;;;11.80;1.00;;;;;;5029796;28;20599;-88
2023/04/23 19:13:42;;;;;;;18.43;10.17;;;11.70;99.90;;;;;;5029407;28;20676;-87
2023/04/23 19:16:11;;;;;;;15.67;9.53;;;11.70;99.90;;;;;;5040714;28;20261;-89
2023/04/23 19:18:38;;;;;;;8.37;6.43;;;11.70;99.90;;;;;;5027885;28;20729;-87
2023/04/23 19:21:05;;;;;;;12.30;6.90;;;11.70;99.90;;;;;;5035432;28;20203;-88
2023/04/23 19:23:32;;;;;;;10.50;6.33;;;11.60;99.90;;;;;;5028568;28;20211;-89
2023/04/23 19:26:00;;;;;;;8.90;6.13;;;11.60;99.90;;;;;;5019140;28;20203;-88
2023/04/23 19:28:27;;;;;;;10.43;6.00;;;11.50;99.90;;;;;;5036473;28;20252;-89
2023/04/23 19:30:54;;;;;;;6.90;5.03;;;11.50;99.90;;;;;;5032797;28;20560;-88
2023/04/23 19:33:23;;;;;;;6.80;4.60;;;11.40;99.90;;;;;;5026274;28;20204;-87
2023/04/23 19:35:50;;;;;;;6.53;4.40;;;11.30;99.90;;;;;;5022480;28;20252;-89
2023/04/23 19:38:17;;;;;;;6.57;4.20;;;11.20;99.90;;;;;;5028917;28;20211;-88
2023/04/23 19:40:44;;;;;;;6.57;3.97;;;11.10;99.90;;;;;;5029252;28;20233;-87
2023/04/23 19:43:14;;;;;;;5.90;4.10;;;11.00;99.90;;;;;;5029432;28;20205;-87
2023/04/23 19:45:45;;;;;;;6.10;3.47;;;11.00;99.90;;;;;;5033112;28;20209;-87
2023/04/23 19:48:12;;;;;;;5.20;3.43;;;10.90;99.90;;;;;;5030662;28;20218;-88
2023/04/23 19:50:40;;;;;;;6.40;3.90;;;10.80;99.90;;;;;;5027127;28;20217;-89
2023/04/23 19:53:07;;;;;;;5.20;4.00;;;10.80;99.90;;;;;;5028812;28;20198;-89
2023/04/23 19:55:34;;;;;;;4.93;4.07;;;10.70;99.90;;;;;;5025978;28;20209;-88
2023/04/23 19:58:05;;;;;;;7.50;4.03;;;10.70;1.00;;;;;;5027392;28;20209;-86
2023/04/23 20:00:37;;;;;;;4.97;3.70;;;10.80;1.00;;;;;;5025924;28;20200;-86
2023/04/23 20:03:05;;;;;;;6.73;3.70;;;10.80;1.00;;;;;;5019300;28;20699;-88
2023/04/23 20:05:32;;;;;;;5.67;3.73;;;10.70;99.90;;;;;;5021358;28;20234;-88
2023/04/23 20:08:03;;;;;;;5.00;3.60;;;10.60;99.90;;;;;;5020008;28;20220;-89
2023/04/23 20:10:30;;;;;;;5.20;3.80;;;10.50;1.00;;;;;;5018324;28;20247;-88
2023/04/23 20:12:58;;;;;;;5.93;3.87;;;10.50;1.00;;;;;;5031148;28;20733;-87
2023/04/23 20:15:26;;;;;;;6.50;3.60;;;10.50;1.00;;;;;;5029977;28;20209;-89
2023/04/23 20:17:53;;;;;;;5.47;4.00;;;10.40;1.00;;;;;;5021363;28;20205;-88
2023/04/23 20:20:21;;;;;;;5.50;3.67;;;10.50;1.00;;;;;;5020301;28;20609;-88
2023/04/23 20:22:48;;;;;;;4.53;3.67;;;10.50;1.00;;;;;;5025271;28;20227;-88
